Arctic Taglu — CY8968 — position and weather

sailwx.info

Track history (hours):
 
Tides and Currents Weather Stations Pressure Air Temp Water Temp Dewpoint Dewpoint Depression Visibility Wind Speed Wind Dir Waves Ship Positions

Arctic Taglu

Last reported at 2017-Jan-15 02:33 UTC. Time now 2017-Jan-21 21:37 UTC.
Position N 49°18' W 123°01'.

Length 33 m; draft 6 m.

Type: Tug. MMSI: 316003483.

Date/timePositionNaut miles runAvg speedWind from/ knotsBaromVisibWave heightAir tempDewpointWater temp
2017-Jan-15 02:33N 49°18' W 123°01'1 0.6
2017-Jan-15 01:33N 49°18' W 123°02'3 2.9
2017-Jan-15 00:33N 49°19' W 123°06'0 0.0
2017-Jan-14 23:33N 49°19' W 123°06'0 0.0
2017-Jan-14 22:33N 49°19' W 123°06'0 0.0
2017-Jan-14 21:33N 49°19' W 123°06'6 6.1
2017-Jan-14 20:33N 49°18' W 123°16'9 9.3
2017-Jan-14 19:33N 49°09' W 123°19'6 6.4
2017-Jan-14 18:33N 49°07' W 123°10'6 5.6
2017-Jan-14 17:33N 49°09' W 123°02'0 0.1
2017-Jan-14 16:33N 49°09' W 123°02'9 9.4
2017-Jan-14 15:33N 49°07' W 123°16'8 8.4
2017-Jan-14 14:33N 48°59' W 123°20'8 8.4
2017-Jan-14 13:33N 48°50' W 123°21'9 9.3
2017-Jan-14 12:33N 48°41' W 123°24'0 0.1
2017-Jan-14 11:33N 48°41' W 123°24'6 6.0
2017-Jan-14 10:28N 48°47' W 123°21'6 6.0
2017-Jan-14 09:33N 48°53' W 123°18'1010.0
2017-Jan-14 08:33N 49°03' W 123°20'10 9.6
2017-Jan-14 07:33N 49°07' W 123°06'3 3.3
2017-Jan-14 06:33N 49°09' W 123°02'0 0.0
2017-Jan-14 05:34N 49°09' W 123°02'0 0.0
2017-Jan-14 04:34N 49°09' W 123°02'0 0.0
2017-Jan-14 03:33N 49°09' W 123°02'0 0.0
2017-Jan-13 23:33N 49°09' W 123°02'0 0.0
2017-Jan-13 22:33N 49°09' W 123°02'0 0.0
2017-Jan-13 21:33N 49°09' W 123°02'0 0.0
2017-Jan-13 20:33N 49°09' W 123°02'0 0.0
2017-Jan-13 19:33N 49°09' W 123°02'0 0.0
2017-Jan-13 18:33N 49°09' W 123°02'0 0.0
2017-Jan-13 17:33N 49°09' W 123°02'0 0.0
2017-Jan-13 16:33N 49°09' W 123°02'8 8.5
2017-Jan-13 15:34N 49°07' W 123°15'8 8.2
2017-Jan-13 14:34N 48°59' W 123°18'9 8.4
2017-Jan-13 13:29N 48°51' W 123°21'9 9.4
2017-Jan-13 12:33N 48°42' W 123°24'1 0.8
2017-Jan-13 11:30N 48°41' W 123°24'7 7.5
2017-Jan-13 10:32N 48°48' W 123°21'6 6.0
2017-Jan-13 09:33N 48°54' W 123°18'10 9.7
2017-Jan-13 08:33N 49°03' W 123°20'1010.0
2017-Jan-13 07:33N 49°07' W 123°06'3 2.8
2017-Jan-13 06:33N 49°09' W 123°02'0 0.0
2017-Jan-13 05:34N 49°09' W 123°02'0 0.0
2017-Jan-13 04:33N 49°09' W 123°02'0 0.0
2017-Jan-13 03:33N 49°09' W 123°02'0 0.0
2017-Jan-13 02:33N 49°09' W 123°02'0 0.0
2017-Jan-13 01:33N 49°09' W 123°02'0 0.0
2017-Jan-13 00:33N 49°09' W 123°02'0 0.0
2017-Jan-12 23:33N 49°09' W 123°02'0 0.0
2017-Jan-12 22:34N 49°09' W 123°02'0 0.0
2017-Jan-12 21:34N 49°09' W 123°02'0 0.0
2017-Jan-12 20:33N 49°09' W 123°02'0 0.0
2017-Jan-12 19:33N 49°09' W 123°02'0 0.0
2017-Jan-12 18:33N 49°09' W 123°02'0 0.0
2017-Jan-12 17:33N 49°09' W 123°02'0 0.2
2017-Jan-12 16:33N 49°09' W 123°02'9 9.0
2017-Jan-12 15:34N 49°07' W 123°16'9 9.1
2017-Jan-12 14:33N 48°58' W 123°19'8 7.5
2017-Jan-12 13:31N 48°51' W 123°21'9 9.2
2017-Jan-12 12:33N 48°42' W 123°24'1 0.6
2017-Jan-12 11:33N 48°41' W 123°24'9 8.6
2017-Jan-12 10:33N 48°50' W 123°21'6 6.3
2017-Jan-12 09:33N 48°56' W 123°19'9 9.4
2017-Jan-12 08:33N 49°05' W 123°20'1110.6
2017-Jan-12 07:33N 49°08' W 123°04'2 1.6
2017-Jan-12 06:33N 49°09' W 123°02'0 0.0
2017-Jan-12 05:33N 49°09' W 123°02'0 0.0
2017-Jan-12 04:33N 49°09' W 123°02'0 0.0
2017-Jan-12 03:34N 49°09' W 123°02'0 0.0
2017-Jan-12 02:33N 49°09' W 123°02'0 0.0
2017-Jan-12 01:33N 49°09' W 123°02'0 0.0
2017-Jan-12 00:33N 49°09' W 123°02'0 0.0
2017-Jan-11 23:33N 49°09' W 123°02'0 0.0
2017-Jan-11 22:34N 49°09' W 123°02'0 0.0
2017-Jan-11 21:33N 49°09' W 123°02'0 0.0
2017-Jan-11 20:33N 49°09' W 123°02'0 0.0
2017-Jan-11 19:33N 49°09' W 123°02'0 0.0
2017-Jan-11 18:33N 49°09' W 123°02'0 0.0
2017-Jan-11 17:33N 49°09' W 123°02'3 3.1
2017-Jan-11 16:33N 49°07' W 123°06'9 8.9
2017-Jan-11 15:33N 49°05' W 123°19'10 9.9
2017-Jan-11 14:33N 48°56' W 123°16'8 7.5
2017-Jan-11 13:27N 48°48' W 123°21'7 7.7
2017-Jan-11 12:33N 48°41' W 123°24'0 0.0
2017-Jan-11 11:29N 48°41' W 123°24'8 8.7
2017-Jan-11 10:32N 48°49' W 123°21'7 7.3
2017-Jan-11 09:34N 48°56' W 123°16'9 8.5
2017-Jan-11 08:33N 49°04' W 123°19'7 7.5
2017-Jan-11 07:33N 49°06' W 123°08'4 4.4
2017-Jan-11 06:33N 49°09' W 123°02'0 0.0
2017-Jan-11 05:33N 49°09' W 123°02'0 0.0
2017-Jan-11 04:33N 49°09' W 123°02'0 0.0
2017-Jan-11 03:33N 49°09' W 123°02'0 0.0
2017-Jan-11 02:34N 49°09' W 123°02'0 0.0
2017-Jan-11 01:33N 49°09' W 123°02'0 0.0
2017-Jan-11 00:33N 49°09' W 123°02'0 0.0
2017-Jan-10 23:33N 49°09' W 123°02'0 0.0
2017-Jan-10 22:34N 49°09' W 123°02'0 0.0
2017-Jan-10 21:33N 49°09' W 123°02'0 0.0
2017-Jan-10 20:34N 49°09' W 123°02'0 0.0
2017-Jan-10 19:33N 49°09' W 123°02'0 0.0
2017-Jan-10 18:33N 49°09' W 123°02'0 0.1
2017-Jan-10 17:34N 49°09' W 123°02'8 7.5
2017-Jan-10 16:34N 49°08' W 123°14'7 7.4
2017-Jan-10 15:34N 49°01' W 123°16'9 8.9
2017-Jan-10 14:33N 48°52' W 123°19'7 6.8
2017-Jan-10 13:31N 48°45' W 123°22'4 4.3
2017-Jan-10 12:33N 48°41' W 123°24'0 0.0
2017-Jan-10 11:32N 48°41' W 123°24'9 8.7
2017-Jan-10 10:33N 48°50' W 123°21'7 6.6
2017-Jan-10 09:33N 48°56' W 123°20'9 8.9
2017-Jan-10 08:34N 49°05' W 123°22'9 9.4
2017-Jan-10 07:34N 49°07' W 123°08'4 4.3
2017-Jan-10 06:33N 49°09' W 123°02'3 3.3
2017-Jan-10 05:33N 49°09' W 122°57'  
2017-Jan-07 19:18N 49°09' W 122°57'0 0.0
2017-Jan-07 18:33N 49°09' W 122°57'3 3.3
2017-Jan-07 17:33N 49°09' W 123°02'3 3.2
2017-Jan-07 16:33N 49°07' W 123°06'8 8.2
2017-Jan-07 15:33N 49°06' W 123°19'1010.0
2017-Jan-07 14:33N 48°56' W 123°18'9 8.8
2017-Jan-07 13:32N 48°47' W 123°21'6 6.4
2017-Jan-07 12:33N 48°41' W 123°24'0 0.0
2017-Jan-07 11:33N 48°41' W 123°24'8 7.5
2017-Jan-07 10:25N 48°49' W 123°21'7 8.2
2017-Jan-07 09:33N 48°56' W 123°19'9 9.0
2017-Jan-07 08:33N 49°05' W 123°21'9 9.2
2017-Jan-07 07:33N 49°07' W 123°07'3 3.4
2017-Jan-07 06:33N 49°09' W 123°02'0 0.0
2017-Jan-07 05:33N 49°09' W 123°02'0 0.0
2017-Jan-07 04:33N 49°09' W 123°02'0 0.0
2017-Jan-07 03:33N 49°09' W 123°02'0 0.0
2017-Jan-07 02:33N 49°09' W 123°02'0 0.0
2017-Jan-07 01:33N 49°09' W 123°02'0 0.0
2017-Jan-07 00:34N 49°09' W 123°02'0 0.0
2017-Jan-06 23:33N 49°09' W 123°02'0 0.0
2017-Jan-06 22:34N 49°09' W 123°02'0 0.0
2017-Jan-06 21:33N 49°09' W 123°02'0 0.0
2017-Jan-06 20:33N 49°09' W 123°02'0 0.0
2017-Jan-06 19:34N 49°09' W 123°02'0 0.0
2017-Jan-06 18:34N 49°09' W 123°02'0 0.0
2017-Jan-06 17:34N 49°09' W 123°02'1 0.9
2017-Jan-06 16:34N 49°08' W 123°03'9 8.5
2017-Jan-06 15:34N 49°07' W 123°16'9 9.0
2017-Jan-06 14:34N 48°58' W 123°19'10 9.3
2017-Jan-06 13:30N 48°48' W 123°21'7 7.6
2017-Jan-06 12:32N 48°41' W 123°24'1 0.7
2017-Jan-06 11:33N 48°42' W 123°23'10 9.3
2017-Jan-06 10:32N 48°51' W 123°21'8 8.5
2017-Jan-06 09:34N 48°59' W 123°20'9 8.8
2017-Jan-06 08:34N 49°07' W 123°15'8 8.5
2017-Jan-06 07:34N 49°09' W 123°02'0 0.1
2017-Jan-06 06:33N 49°09' W 123°02'0 0.0
2017-Jan-06 05:34N 49°09' W 123°02'0 0.0
2017-Jan-06 04:34N 49°09' W 123°02'0 0.0
2017-Jan-06 03:33N 49°09' W 123°02'0 0.0
2017-Jan-06 02:34N 49°09' W 123°02'0 0.0
2017-Jan-06 01:34N 49°09' W 123°02'0 0.0
2017-Jan-06 00:33N 49°09' W 123°02'0 0.0
2017-Jan-05 23:34N 49°09' W 123°02'0 0.0
2017-Jan-05 22:33N 49°09' W 123°02'0 0.0
2017-Jan-05 21:34N 49°09' W 123°02'0 0.0
2017-Jan-05 20:33N 49°09' W 123°02'0 0.0
2017-Jan-05 19:33N 49°09' W 123°02'0 0.0
2017-Jan-05 18:34N 49°09' W 123°02'0 0.0
2017-Jan-05 17:34N 49°09' W 123°02'0 0.0
2017-Jan-05 16:34N 49°09' W 123°02'7 6.8
2017-Jan-05 15:34N 49°08' W 123°13'8 8.0
2017-Jan-05 14:33N 49°01' W 123°19'10 9.4
2017-Jan-05 13:28N 48°51' W 123°21'9 9.4
2017-Jan-05 12:34N 48°42' W 123°24'1 0.9
2017-Jan-05 11:33N 48°41' W 123°24'6 6.3
2017-Jan-05 10:33N 48°47' W 123°21'8 8.5
2017-Jan-05 09:33N 48°56' W 123°18'1010.2
2017-Jan-05 08:33N 49°06' W 123°19'10 9.9
2017-Jan-05 07:34N 49°07' W 123°05'2 2.0
2017-Jan-05 06:33N 49°09' W 123°02'0 0.0
2017-Jan-05 05:33N 49°09' W 123°02'0 0.0
2017-Jan-05 04:33N 49°09' W 123°02'0 0.0
2017-Jan-05 03:33N 49°09' W 123°02'0 0.0
2017-Jan-05 02:34N 49°09' W 123°02'  
Track history (hours):
 
Tides and Currents Weather Stations Pressure Air Temp Water Temp Dewpoint Dewpoint Depression Visibility Wind Speed Wind Dir Waves Ship Positions

Arctic Taglu

Last reported at 2017-Jan-15 02:33 UTC. Time now 2017-Jan-21 21:37 UTC.
Position N 49°18' W 123°01'.

Length 33 m; draft 6 m.

Type: Tug. MMSI: 316003483.

Date/timePositionNaut miles runAvg speedWind from/ knotsBaromVisibWave heightAir tempDewpointWater temp
2017-Jan-15 02:33N 49°18' W 123°01'1 0.6
2017-Jan-15 01:33N 49°18' W 123°02'3 2.9
2017-Jan-15 00:33N 49°19' W 123°06'0 0.0
2017-Jan-14 23:33N 49°19' W 123°06'0 0.0
2017-Jan-14 22:33N 49°19' W 123°06'0 0.0
2017-Jan-14 21:33N 49°19' W 123°06'6 6.1
2017-Jan-14 20:33N 49°18' W 123°16'9 9.3
2017-Jan-14 19:33N 49°09' W 123°19'6 6.4
2017-Jan-14 18:33N 49°07' W 123°10'6 5.6
2017-Jan-14 17:33N 49°09' W 123°02'0 0.1
2017-Jan-14 16:33N 49°09' W 123°02'9 9.4
2017-Jan-14 15:33N 49°07' W 123°16'8 8.4
2017-Jan-14 14:33N 48°59' W 123°20'8 8.4
2017-Jan-14 13:33N 48°50' W 123°21'9 9.3
2017-Jan-14 12:33N 48°41' W 123°24'0 0.1
2017-Jan-14 11:33N 48°41' W 123°24'6 6.0
2017-Jan-14 10:28N 48°47' W 123°21'6 6.0
2017-Jan-14 09:33N 48°53' W 123°18'1010.0
2017-Jan-14 08:33N 49°03' W 123°20'10 9.6
2017-Jan-14 07:33N 49°07' W 123°06'3 3.3
2017-Jan-14 06:33N 49°09' W 123°02'0 0.0
2017-Jan-14 05:34N 49°09' W 123°02'0 0.0
2017-Jan-14 04:34N 49°09' W 123°02'0 0.0
2017-Jan-14 03:33N 49°09' W 123°02'0 0.0
2017-Jan-13 23:33N 49°09' W 123°02'0 0.0
2017-Jan-13 22:33N 49°09' W 123°02'0 0.0
2017-Jan-13 21:33N 49°09' W 123°02'0 0.0
2017-Jan-13 20:33N 49°09' W 123°02'0 0.0
2017-Jan-13 19:33N 49°09' W 123°02'0 0.0
2017-Jan-13 18:33N 49°09' W 123°02'0 0.0
2017-Jan-13 17:33N 49°09' W 123°02'0 0.0
2017-Jan-13 16:33N 49°09' W 123°02'8 8.5
2017-Jan-13 15:34N 49°07' W 123°15'8 8.2
2017-Jan-13 14:34N 48°59' W 123°18'9 8.4
2017-Jan-13 13:29N 48°51' W 123°21'9 9.4
2017-Jan-13 12:33N 48°42' W 123°24'1 0.8
2017-Jan-13 11:30N 48°41' W 123°24'7 7.5
2017-Jan-13 10:32N 48°48' W 123°21'6 6.0
2017-Jan-13 09:33N 48°54' W 123°18'10 9.7
2017-Jan-13 08:33N 49°03' W 123°20'1010.0
2017-Jan-13 07:33N 49°07' W 123°06'3 2.8
2017-Jan-13 06:33N 49°09' W 123°02'0 0.0
2017-Jan-13 05:34N 49°09' W 123°02'0 0.0
2017-Jan-13 04:33N 49°09' W 123°02'0 0.0
2017-Jan-13 03:33N 49°09' W 123°02'0 0.0
2017-Jan-13 02:33N 49°09' W 123°02'0 0.0
2017-Jan-13 01:33N 49°09' W 123°02'0 0.0
2017-Jan-13 00:33N 49°09' W 123°02'0 0.0
2017-Jan-12 23:33N 49°09' W 123°02'0 0.0
2017-Jan-12 22:34N 49°09' W 123°02'0 0.0
2017-Jan-12 21:34N 49°09' W 123°02'0 0.0
2017-Jan-12 20:33N 49°09' W 123°02'0 0.0
2017-Jan-12 19:33N 49°09' W 123°02'0 0.0
2017-Jan-12 18:33N 49°09' W 123°02'0 0.0
2017-Jan-12 17:33N 49°09' W 123°02'0 0.2
2017-Jan-12 16:33N 49°09' W 123°02'9 9.0
2017-Jan-12 15:34N 49°07' W 123°16'9 9.1
2017-Jan-12 14:33N 48°58' W 123°19'8 7.5
2017-Jan-12 13:31N 48°51' W 123°21'9 9.2
2017-Jan-12 12:33N 48°42' W 123°24'1 0.6
2017-Jan-12 11:33N 48°41' W 123°24'9 8.6
2017-Jan-12 10:33N 48°50' W 123°21'6 6.3
2017-Jan-12 09:33N 48°56' W 123°19'9 9.4
2017-Jan-12 08:33N 49°05' W 123°20'1110.6
2017-Jan-12 07:33N 49°08' W 123°04'2 1.6
2017-Jan-12 06:33N 49°09' W 123°02'0 0.0
2017-Jan-12 05:33N 49°09' W 123°02'0 0.0
2017-Jan-12 04:33N 49°09' W 123°02'0 0.0
2017-Jan-12 03:34N 49°09' W 123°02'0 0.0
2017-Jan-12 02:33N 49°09' W 123°02'0 0.0
2017-Jan-12 01:33N 49°09' W 123°02'0 0.0
2017-Jan-12 00:33N 49°09' W 123°02'0 0.0
2017-Jan-11 23:33N 49°09' W 123°02'0 0.0
2017-Jan-11 22:34N 49°09' W 123°02'0 0.0
2017-Jan-11 21:33N 49°09' W 123°02'0 0.0
2017-Jan-11 20:33N 49°09' W 123°02'0 0.0
2017-Jan-11 19:33N 49°09' W 123°02'0 0.0
2017-Jan-11 18:33N 49°09' W 123°02'0 0.0
2017-Jan-11 17:33N 49°09' W 123°02'3 3.1
2017-Jan-11 16:33N 49°07' W 123°06'9 8.9
2017-Jan-11 15:33N 49°05' W 123°19'10 9.9
2017-Jan-11 14:33N 48°56' W 123°16'8 7.5
2017-Jan-11 13:27N 48°48' W 123°21'7 7.7
2017-Jan-11 12:33N 48°41' W 123°24'0 0.0
2017-Jan-11 11:29N 48°41' W 123°24'8 8.7
2017-Jan-11 10:32N 48°49' W 123°21'7 7.3
2017-Jan-11 09:34N 48°56' W 123°16'9 8.5
2017-Jan-11 08:33N 49°04' W 123°19'7 7.5
2017-Jan-11 07:33N 49°06' W 123°08'4 4.4
2017-Jan-11 06:33N 49°09' W 123°02'0 0.0
2017-Jan-11 05:33N 49°09' W 123°02'0 0.0
2017-Jan-11 04:33N 49°09' W 123°02'0 0.0
2017-Jan-11 03:33N 49°09' W 123°02'0 0.0
2017-Jan-11 02:34N 49°09' W 123°02'0 0.0
2017-Jan-11 01:33N 49°09' W 123°02'0 0.0
2017-Jan-11 00:33N 49°09' W 123°02'0 0.0
2017-Jan-10 23:33N 49°09' W 123°02'0 0.0
2017-Jan-10 22:34N 49°09' W 123°02'0 0.0
2017-Jan-10 21:33N 49°09' W 123°02'0 0.0
2017-Jan-10 20:34N 49°09' W 123°02'0 0.0
2017-Jan-10 19:33N 49°09' W 123°02'0 0.0
2017-Jan-10 18:33N 49°09' W 123°02'0 0.1
2017-Jan-10 17:34N 49°09' W 123°02'8 7.5
2017-Jan-10 16:34N 49°08' W 123°14'7 7.4
2017-Jan-10 15:34N 49°01' W 123°16'9 8.9
2017-Jan-10 14:33N 48°52' W 123°19'7 6.8
2017-Jan-10 13:31N 48°45' W 123°22'4 4.3
2017-Jan-10 12:33N 48°41' W 123°24'0 0.0
2017-Jan-10 11:32N 48°41' W 123°24'9 8.7
2017-Jan-10 10:33N 48°50' W 123°21'7 6.6
2017-Jan-10 09:33N 48°56' W 123°20'9 8.9
2017-Jan-10 08:34N 49°05' W 123°22'9 9.4
2017-Jan-10 07:34N 49°07' W 123°08'4 4.3
2017-Jan-10 06:33N 49°09' W 123°02'3 3.3
2017-Jan-10 05:33N 49°09' W 122°57'  
2017-Jan-07 19:18N 49°09' W 122°57'0 0.0
2017-Jan-07 18:33N 49°09' W 122°57'3 3.3
2017-Jan-07 17:33N 49°09' W 123°02'3 3.2
2017-Jan-07 16:33N 49°07' W 123°06'8 8.2
2017-Jan-07 15:33N 49°06' W 123°19'1010.0
2017-Jan-07 14:33N 48°56' W 123°18'9 8.8
2017-Jan-07 13:32N 48°47' W 123°21'6 6.4
2017-Jan-07 12:33N 48°41' W 123°24'0 0.0
2017-Jan-07 11:33N 48°41' W 123°24'8 7.5
2017-Jan-07 10:25N 48°49' W 123°21'7 8.2
2017-Jan-07 09:33N 48°56' W 123°19'9 9.0
2017-Jan-07 08:33N 49°05' W 123°21'9 9.2
2017-Jan-07 07:33N 49°07' W 123°07'3 3.4
2017-Jan-07 06:33N 49°09' W 123°02'0 0.0
2017-Jan-07 05:33N 49°09' W 123°02'0 0.0
2017-Jan-07 04:33N 49°09' W 123°02'0 0.0
2017-Jan-07 03:33N 49°09' W 123°02'0 0.0
2017-Jan-07 02:33N 49°09' W 123°02'0 0.0
2017-Jan-07 01:33N 49°09' W 123°02'0 0.0
2017-Jan-07 00:34N 49°09' W 123°02'0 0.0
2017-Jan-06 23:33N 49°09' W 123°02'0 0.0
2017-Jan-06 22:34N 49°09' W 123°02'0 0.0
2017-Jan-06 21:33N 49°09' W 123°02'0 0.0
2017-Jan-06 20:33N 49°09' W 123°02'0 0.0
2017-Jan-06 19:34N 49°09' W 123°02'0 0.0
2017-Jan-06 18:34N 49°09' W 123°02'0 0.0
2017-Jan-06 17:34N 49°09' W 123°02'1 0.9
2017-Jan-06 16:34N 49°08' W 123°03'9 8.5
2017-Jan-06 15:34N 49°07' W 123°16'9 9.0
2017-Jan-06 14:34N 48°58' W 123°19'10 9.3
2017-Jan-06 13:30N 48°48' W 123°21'7 7.6
2017-Jan-06 12:32N 48°41' W 123°24'1 0.7
2017-Jan-06 11:33N 48°42' W 123°23'10 9.3
2017-Jan-06 10:32N 48°51' W 123°21'8 8.5
2017-Jan-06 09:34N 48°59' W 123°20'9 8.8
2017-Jan-06 08:34N 49°07' W 123°15'8 8.5
2017-Jan-06 07:34N 49°09' W 123°02'0 0.1
2017-Jan-06 06:33N 49°09' W 123°02'0 0.0
2017-Jan-06 05:34N 49°09' W 123°02'0 0.0
2017-Jan-06 04:34N 49°09' W 123°02'0 0.0
2017-Jan-06 03:33N 49°09' W 123°02'0 0.0
2017-Jan-06 02:34N 49°09' W 123°02'0 0.0
2017-Jan-06 01:34N 49°09' W 123°02'0 0.0
2017-Jan-06 00:33N 49°09' W 123°02'0 0.0
2017-Jan-05 23:34N 49°09' W 123°02'0 0.0
2017-Jan-05 22:33N 49°09' W 123°02'0 0.0
2017-Jan-05 21:34N 49°09' W 123°02'0 0.0
2017-Jan-05 20:33N 49°09' W 123°02'0 0.0
2017-Jan-05 19:33N 49°09' W 123°02'0 0.0
2017-Jan-05 18:34N 49°09' W 123°02'0 0.0
2017-Jan-05 17:34N 49°09' W 123°02'0 0.0
2017-Jan-05 16:34N 49°09' W 123°02'7 6.8
2017-Jan-05 15:34N 49°08' W 123°13'8 8.0
2017-Jan-05 14:33N 49°01' W 123°19'10 9.4
2017-Jan-05 13:28N 48°51' W 123°21'9 9.4
2017-Jan-05 12:34N 48°42' W 123°24'1 0.9
2017-Jan-05 11:33N 48°41' W 123°24'6 6.3
2017-Jan-05 10:33N 48°47' W 123°21'8 8.5
2017-Jan-05 09:33N 48°56' W 123°18'1010.2
2017-Jan-05 08:33N 49°06' W 123°19'10 9.9
2017-Jan-05 07:34N 49°07' W 123°05'2 2.0
2017-Jan-05 06:33N 49°09' W 123°02'0 0.0
2017-Jan-05 05:33N 49°09' W 123°02'0 0.0
2017-Jan-05 04:33N 49°09' W 123°02'0 0.0
2017-Jan-05 03:33N 49°09' W 123°02'0 0.0
2017-Jan-05 02:34N 49°09' W 123°02'  

Dump ship's entire track history